Terminal Aerodrome Forecast
Issued by NWS

Home | Current Version | Previous Version | Text Only | Print | Product List | Glossary On
Versions: 1 2 3 4 5 6 7 8 9 10 11 12 13 14 15 16 17 18 19 20
000
FTUS43 KBIS 221200 AAA
TAFDIK
TAF AMD
KDIK 221226Z 2212/2312 VRB03KT 1/4SM FG VV002
      TEMPO 2213/2214 1SM BR OVC003
     FM221400 02005KT 2SM BR BKN005
     FM221500 07005KT P6SM SCT040
     FM230300 11006KT P6SM SCT110=

USA.gov is the U.S. government's official web portal to all federal, state and local government web resources and services.